createdAt,value
2023-04-02T00:00:17.651Z,20.29
2023-04-02T00:01:17.675Z,20.26
2023-04-02T00:02:17.751Z,20.32
2023-04-02T00:03:17.973Z,20.30
2023-04-02T00:04:17.884Z,20.27
2023-04-02T00:05:17.921Z,20.27
2023-04-02T00:06:17.959Z,20.32
2023-04-02T00:07:18.000Z,20.29
2023-04-02T00:08:18.024Z,20.26
2023-04-02T00:09:18.009Z,20.27
2023-04-02T00:10:18.030Z,20.26
2023-04-02T00:11:18.021Z,20.27
2023-04-02T00:12:18.052Z,20.27
2023-04-02T00:13:18.120Z,20.27
2023-04-02T00:14:18.151Z,20.29
2023-04-02T00:15:18.193Z,20.27
2023-04-02T00:16:18.285Z,20.32
2023-04-02T00:17:18.303Z,20.30
2023-04-02T00:18:18.453Z,20.32
2023-04-02T00:19:18.425Z,20.29
2023-04-02T00:20:18.487Z,20.33
2023-04-02T00:21:18.540Z,20.36
2023-04-02T00:22:18.536Z,20.30
2023-04-02T00:23:18.549Z,20.30
2023-04-02T00:24:18.567Z,20.29
2023-04-02T00:25:18.561Z,20.29
2023-04-02T00:26:18.554Z,20.33
2023-04-02T00:27:18.561Z,20.33
2023-04-02T00:28:18.572Z,20.34
2023-04-02T00:29:18.587Z,20.32
2023-04-02T00:30:18.591Z,20.33
2023-04-02T00:31:18.600Z,20.33
2023-04-02T00:32:18.647Z,20.33
2023-04-02T00:33:18.627Z,20.34
2023-04-02T00:34:18.680Z,20.30
2023-04-02T00:35:18.723Z,20.32
2023-04-02T00:36:18.801Z,20.30
2023-04-02T00:37:18.827Z,20.30
2023-04-02T00:38:18.904Z,20.34
2023-04-02T00:39:18.924Z,20.36
2023-04-02T00:40:18.974Z,20.30
2023-04-02T00:41:19.040Z,20.32
2023-04-02T00:42:19.039Z,20.34
2023-04-02T00:43:19.057Z,20.39
2023-04-02T00:44:19.073Z,20.38
2023-04-02T00:45:19.068Z,20.33
2023-04-02T00:46:19.126Z,20.33
2023-04-02T00:47:19.089Z,20.31
2023-04-02T00:48:19.108Z,20.32
2023-04-02T00:49:19.114Z,20.33
2023-04-02T00:50:19.109Z,20.34
2023-04-02T00:51:19.112Z,20.34
2023-04-02T00:52:19.127Z,20.36
2023-04-02T00:53:19.141Z,20.33
2023-04-02T00:54:19.150Z,20.30
2023-04-02T00:55:19.157Z,20.33
2023-04-02T00:56:19.205Z,20.36
2023-04-02T00:57:19.334Z,20.30
2023-04-02T00:58:19.293Z,20.38
2023-04-02T00:59:19.353Z,20.32
2023-04-02T01:00:19.421Z,20.32
2023-04-02T01:01:19.530Z,20.36
2023-04-02T01:02:19.512Z,20.34
2023-04-02T01:03:19.601Z,20.38
2023-04-02T01:04:19.580Z,20.36
2023-04-02T01:05:19.591Z,20.39
2023-04-02T01:06:19.596Z,20.38
2023-04-02T01:07:19.626Z,20.38
2023-04-02T01:08:19.626Z,20.39
2023-04-02T01:09:19.644Z,20.39
2023-04-02T01:10:19.629Z,20.39
2023-04-02T01:11:19.641Z,20.42
2023-04-02T01:12:19.655Z,20.38
2023-04-02T01:13:19.651Z,20.39
2023-04-02T01:14:19.656Z,20.42
2023-04-02T01:15:19.664Z,20.45
2023-04-02T01:16:19.696Z,20.43
2023-04-02T01:17:19.674Z,20.40
2023-04-02T01:18:19.732Z,20.42
2023-04-02T01:19:19.711Z,20.40
2023-04-02T01:20:19.718Z,20.39
2023-04-02T01:21:19.714Z,20.47
2023-04-02T01:22:19.721Z,20.42
2023-04-02T01:23:19.748Z,20.43
2023-04-02T01:24:19.768Z,20.43
2023-04-02T01:25:19.793Z,20.47
2023-04-02T01:26:19.797Z,20.40
2023-04-02T01:27:19.808Z,20.47
2023-04-02T01:28:19.871Z,20.43
2023-04-02T01:29:19.877Z,20.45
2023-04-02T01:30:19.859Z,20.47
2023-04-02T01:31:19.877Z,20.45
2023-04-02T01:32:19.914Z,20.46
2023-04-02T01:33:19.961Z,20.42
2023-04-02T01:34:19.943Z,20.43
2023-04-02T01:35:19.933Z,20.46
2023-04-02T01:36:19.966Z,20.53
2023-04-02T01:37:19.965Z,20.51
2023-04-02T01:38:19.965Z,20.47
2023-04-02T01:39:20.067Z,20.48
2023-04-02T01:40:20.019Z,20.53
2023-04-02T01:41:20.002Z,20.48
2023-04-02T01:42:20.060Z,20.48
2023-04-02T01:43:20.041Z,20.46
2023-04-02T01:44:20.045Z,20.50
2023-04-02T01:45:20.106Z,20.50
2023-04-02T01:46:20.166Z,20.45
2023-04-02T01:47:20.220Z,20.48
2023-04-02T01:48:20.267Z,20.48
2023-04-02T01:49:20.315Z,20.48
2023-04-02T01:50:20.459Z,20.48
2023-04-02T01:51:20.399Z,20.48
2023-04-02T01:52:20.432Z,20.57
2023-04-02T01:53:20.491Z,20.48
2023-04-02T01:54:20.535Z,20.49
2023-04-02T01:55:20.590Z,20.51
2023-04-02T01:56:20.645Z,20.48
2023-04-02T01:57:20.683Z,20.50
2023-04-02T01:58:20.675Z,20.50
2023-04-02T01:59:20.704Z,20.48
2023-04-02T02:00:20.744Z,20.50
2023-04-02T02:01:20.842Z,20.51
2023-04-02T02:02:20.793Z,20.52
2023-04-02T02:03:20.846Z,20.50
2023-04-02T02:04:20.825Z,20.51
2023-04-02T02:05:20.865Z,20.51
2023-04-02T02:06:20.874Z,20.54
2023-04-02T02:07:20.908Z,20.51
2023-04-02T02:08:20.933Z,20.54
2023-04-02T02:09:20.945Z,20.53
2023-04-02T02:10:20.967Z,20.53
2023-04-02T02:11:20.984Z,20.51
2023-04-02T02:12:21.042Z,20.56
2023-04-02T02:13:21.055Z,20.51
2023-04-02T02:14:21.132Z,20.56
2023-04-02T02:15:21.192Z,20.60
2023-04-02T02:16:21.256Z,20.58
2023-04-02T02:17:21.289Z,20.54
2023-04-02T02:18:21.333Z,20.56
2023-04-02T02:19:21.398Z,20.55
2023-04-02T02:20:21.432Z,20.55
2023-04-02T02:21:21.555Z,20.55
2023-04-02T02:22:21.519Z,20.60
2023-04-02T02:23:21.543Z,20.55
2023-04-02T02:24:21.525Z,20.54
2023-04-02T02:25:21.578Z,20.60
2023-04-02T02:26:21.575Z,20.60
2023-04-02T02:27:21.577Z,20.56
2023-04-02T02:28:21.617Z,20.56
2023-04-02T02:29:21.645Z,20.60
2023-04-02T02:30:21.670Z,20.57
2023-04-02T02:31:21.707Z,20.57
2023-04-02T02:32:21.738Z,20.60
2023-04-02T02:33:21.745Z,20.58
2023-04-02T02:34:21.782Z,20.58
2023-04-02T02:35:21.829Z,20.51
2023-04-02T02:36:21.815Z,20.58
2023-04-02T02:37:21.830Z,20.55
2023-04-02T02:38:21.837Z,20.57
2023-04-02T02:39:21.852Z,20.58
2023-04-02T02:40:21.895Z,20.60
2023-04-02T02:41:21.902Z,20.57
2023-04-02T02:42:21.928Z,20.60
2023-04-02T02:43:21.932Z,20.61
2023-04-02T02:44:21.928Z,20.64
2023-04-02T02:45:21.961Z,20.63
2023-04-02T02:46:22.018Z,20.61
2023-04-02T02:47:22.078Z,20.57
2023-04-02T02:48:22.083Z,20.60
2023-04-02T02:49:22.144Z,20.61
2023-04-02T02:50:22.191Z,20.63
2023-04-02T02:51:22.233Z,20.61
2023-04-02T02:52:22.302Z,20.63
2023-04-02T02:53:22.333Z,20.64
2023-04-02T02:54:22.365Z,20.64
2023-04-02T02:55:22.398Z,20.63
2023-04-02T02:56:22.402Z,20.63
2023-04-02T02:57:22.468Z,20.64
2023-04-02T02:58:22.441Z,20.61
2023-04-02T02:59:22.443Z,20.63
2023-04-02T03:00:22.458Z,20.63
2023-04-02T03:01:22.564Z,20.63
2023-04-02T03:02:22.610Z,20.70
2023-04-02T03:03:22.651Z,20.69
2023-04-02T03:04:22.717Z,20.66
2023-04-02T03:05:22.573Z,20.66
2023-04-02T03:06:22.599Z,20.70
2023-04-02T03:07:22.635Z,20.73
2023-04-02T03:08:22.673Z,20.70
2023-04-02T03:09:22.712Z,20.69
2023-04-02T03:10:22.776Z,20.72
2023-04-02T03:11:22.722Z,20.72
2023-04-02T03:12:22.748Z,20.70
2023-04-02T03:13:22.777Z,20.76
2023-04-02T03:14:22.812Z,20.72
2023-04-02T03:15:22.813Z,20.76
2023-04-02T03:16:22.944Z,20.72
2023-04-02T03:17:22.863Z,20.73
2023-04-02T03:18:22.915Z,20.75
2023-04-02T03:19:22.899Z,20.75
2023-04-02T03:20:22.899Z,20.78
2023-04-02T03:21:22.922Z,20.72
2023-04-02T03:22:22.939Z,20.75
2023-04-02T03:23:22.953Z,20.72
2023-04-02T03:24:22.998Z,20.79
2023-04-02T03:25:23.045Z,20.73
2023-04-02T03:26:23.100Z,20.76
2023-04-02T03:27:23.163Z,20.78
2023-04-02T03:28:23.196Z,20.75
2023-04-02T03:29:23.240Z,20.75
2023-04-02T03:30:23.291Z,20.73
2023-04-02T03:31:23.300Z,20.75
2023-04-02T03:32:23.300Z,20.81
2023-04-02T03:33:23.325Z,20.76
2023-04-02T03:34:23.329Z,20.69
2023-04-02T03:35:23.335Z,20.73
2023-04-02T03:36:23.431Z,20.78
2023-04-02T03:37:23.380Z,20.76
2023-04-02T03:38:23.410Z,20.75
2023-04-02T03:39:23.428Z,20.75
2023-04-02T03:40:23.452Z,20.77
2023-04-02T03:41:23.539Z,20.73
2023-04-02T03:42:23.572Z,20.76
2023-04-02T03:43:23.596Z,20.81
2023-04-02T03:44:23.620Z,20.78
2023-04-02T03:45:23.650Z,20.79
2023-04-02T03:46:23.710Z,20.81
2023-04-02T03:47:23.719Z,20.76
2023-04-02T03:48:23.726Z,20.81
2023-04-02T03:49:23.740Z,20.79
2023-04-02T03:50:23.754Z,20.77
2023-04-02T03:51:23.800Z,20.78
2023-04-02T03:52:23.805Z,20.76
2023-04-02T03:53:23.848Z,20.81
2023-04-02T03:54:23.897Z,20.79
2023-04-02T03:55:23.968Z,20.79
2023-04-02T03:56:24.032Z,20.81
2023-04-02T03:57:24.094Z,20.78
2023-04-02T03:58:24.072Z,20.85
2023-04-02T03:59:24.113Z,20.87
2023-04-02T04:00:24.144Z,20.82
2023-04-02T04:01:24.159Z,20.81
2023-04-02T04:02:24.370Z,20.82
2023-04-02T04:03:24.277Z,20.79
2023-04-02T04:04:24.357Z,20.77
2023-04-02T04:05:24.355Z,20.79
2023-04-02T04:06:24.417Z,20.76
2023-04-02T04:07:24.483Z,20.77
2023-04-02T04:08:24.525Z,20.76
2023-04-02T04:09:24.545Z,20.79
2023-04-02T04:10:24.548Z,20.82
2023-04-02T04:11:24.672Z,20.82
2023-04-02T04:12:24.582Z,20.79
2023-04-02T04:13:24.637Z,20.78
2023-04-02T04:14:24.633Z,20.79
2023-04-02T04:15:24.707Z,20.81
2023-04-02T04:16:24.776Z,20.77
2023-04-02T04:17:24.931Z,20.79
2023-04-02T04:18:24.813Z,20.81
2023-04-02T04:19:24.833Z,20.85
2023-04-02T04:20:24.830Z,20.78
2023-04-02T04:21:24.855Z,20.79
2023-04-02T04:22:24.867Z,20.82
2023-04-02T04:23:24.892Z,20.85
2023-04-02T04:24:24.930Z,20.82
2023-04-02T04:25:24.945Z,20.79
2023-04-02T04:26:24.967Z,20.84
2023-04-02T04:27:24.969Z,20.82
2023-04-02T04:28:25.012Z,20.83
2023-04-02T04:29:25.020Z,20.82
2023-04-02T04:30:25.042Z,20.85
2023-04-02T04:31:26.059Z,20.82
2023-04-02T04:32:25.123Z,20.85
2023-04-02T04:33:25.097Z,20.82
2023-04-02T04:34:25.128Z,20.81
2023-04-02T04:35:25.211Z,20.83
2023-04-02T04:36:25.173Z,20.84
2023-04-02T04:37:25.229Z,20.85
2023-04-02T04:38:25.243Z,20.87
2023-04-02T04:39:25.270Z,20.77
2023-04-02T04:40:25.303Z,20.82
2023-04-02T04:41:25.338Z,20.82
2023-04-02T04:42:25.383Z,20.83
2023-04-02T04:43:25.448Z,20.82
2023-04-02T04:44:25.494Z,20.79
2023-04-02T04:45:25.555Z,20.84
2023-04-02T04:46:25.694Z,20.79
2023-04-02T04:47:25.709Z,20.82
2023-04-02T04:48:25.695Z,20.84
2023-04-02T04:49:25.715Z,20.82
2023-04-02T04:50:25.757Z,20.83
2023-04-02T04:51:25.747Z,20.81
2023-04-02T04:52:25.771Z,20.79
2023-04-02T04:53:25.805Z,20.77
2023-04-02T04:54:25.816Z,20.83
2023-04-02T04:55:25.861Z,20.76
2023-04-02T04:56:25.897Z,20.77
2023-04-02T04:57:25.988Z,20.76
2023-04-02T04:58:25.968Z,20.76
2023-04-02T04:59:25.965Z,20.79
2023-04-02T05:00:26.027Z,20.78
2023-04-02T05:01:26.132Z,20.82
2023-04-02T05:02:26.135Z,20.77
2023-04-02T05:03:26.169Z,20.79
2023-04-02T05:04:26.287Z,20.82
2023-04-02T05:05:26.270Z,20.76
2023-04-02T05:06:26.309Z,20.73
2023-04-02T05:07:26.342Z,20.70
2023-04-02T05:08:26.350Z,20.77
2023-04-02T05:09:26.370Z,20.75
2023-04-02T05:10:26.389Z,20.76
2023-04-02T05:11:26.432Z,20.72
2023-04-02T05:12:26.479Z,20.75
2023-04-02T05:13:26.533Z,20.70
2023-04-02T05:14:26.539Z,20.72
2023-04-02T05:15:26.580Z,20.69
2023-04-02T05:16:26.637Z,20.73
2023-04-02T05:17:26.738Z,20.75
2023-04-02T05:18:26.733Z,20.69
2023-04-02T05:19:26.780Z,20.67
2023-04-02T05:20:26.859Z,20.69
2023-04-02T05:21:26.881Z,20.64
2023-04-02T05:22:26.960Z,20.70
2023-04-02T05:23:27.026Z,20.67
2023-04-02T05:24:27.083Z,20.64
2023-04-02T05:25:27.150Z,20.61
2023-04-02T05:26:27.169Z,20.63
2023-04-02T05:27:27.223Z,20.65
2023-04-02T05:28:27.245Z,20.64
2023-04-02T05:29:27.291Z,20.60
2023-04-02T05:30:27.361Z,20.62
2023-04-02T05:31:27.451Z,20.56
2023-04-02T05:32:27.468Z,20.63
2023-04-02T05:33:27.421Z,20.56
2023-04-02T05:34:27.427Z,20.59
2023-04-02T05:35:27.438Z,20.51
2023-04-02T05:36:27.646Z,20.54
2023-04-02T05:37:27.633Z,20.51
2023-04-02T05:38:27.627Z,20.48
2023-04-02T05:39:27.727Z,20.47
2023-04-02T05:40:27.696Z,20.47
2023-04-02T05:41:27.740Z,20.41
2023-04-02T05:42:27.728Z,20.47
2023-04-02T05:43:27.671Z,20.40
2023-04-02T05:44:27.702Z,20.38
2023-04-02T05:45:27.712Z,20.40
2023-04-02T05:46:27.771Z,20.34
2023-04-02T05:47:27.744Z,20.27
2023-04-02T05:48:27.720Z,20.28
2023-04-02T05:49:27.714Z,20.27
2023-04-02T05:50:27.733Z,20.27
2023-04-02T05:51:27.737Z,20.27
2023-04-02T05:52:27.832Z,20.21
2023-04-02T05:53:27.791Z,20.20
2023-04-02T05:54:27.777Z,20.17
2023-04-02T05:55:27.793Z,20.18
2023-04-02T05:56:27.777Z,20.18
2023-04-02T05:57:42.121Z,20.11
2023-04-02T05:59:27.809Z,20.11
2023-04-02T06:00:27.831Z,20.09
2023-04-02T06:01:27.731Z,20.07
2023-04-02T06:02:27.958Z,20.01
2023-04-02T06:03:27.808Z,19.92
2023-04-02T06:04:27.713Z,19.92
2023-04-02T06:05:27.713Z,19.88
2023-04-02T06:06:27.716Z,19.86
2023-04-02T06:07:27.708Z,19.78
2023-04-02T06:08:27.709Z,19.62
2023-04-02T06:09:27.763Z,19.46
2023-04-02T06:10:27.741Z,19.23
2023-04-02T06:11:27.783Z,19.02
2023-04-02T06:12:27.788Z,18.84
2023-04-02T06:13:27.867Z,18.65
2023-04-02T06:14:27.827Z,18.52
2023-04-02T06:15:27.986Z,18.39
2023-04-02T06:16:28.061Z,18.29
2023-04-02T06:17:28.021Z,18.22
2023-04-02T06:18:28.000Z,18.09
2023-04-02T06:19:28.066Z,17.97
2023-04-02T06:20:28.212Z,17.87
2023-04-02T06:21:28.135Z,17.72
2023-04-02T06:22:28.170Z,17.71
2023-04-02T06:23:28.213Z,17.53
2023-04-02T06:24:28.238Z,17.36
2023-04-02T06:25:28.261Z,17.21
2023-04-02T06:26:28.240Z,17.06
2023-04-02T06:27:28.289Z,16.88
2023-04-02T06:28:28.302Z,16.72
2023-04-02T06:29:28.280Z,16.48
2023-04-02T06:30:28.373Z,16.24
2023-04-02T06:31:28.402Z,15.98
2023-04-02T06:32:28.484Z,15.72
2023-04-02T06:33:28.425Z,15.44
2023-04-02T06:34:28.465Z,15.21
2023-04-02T06:35:28.505Z,14.96
2023-04-02T06:36:28.528Z,14.76
2023-04-02T06:37:28.604Z,14.57
2023-04-02T06:38:28.582Z,14.35
2023-04-02T06:39:28.584Z,14.09
2023-04-02T06:40:28.605Z,13.88
2023-04-02T06:41:28.677Z,13.72
2023-04-02T06:42:28.709Z,14.29
2023-04-02T06:43:28.765Z,14.66
2023-04-02T06:44:28.730Z,14.73
2023-04-02T06:45:28.765Z,14.70
2023-04-02T06:46:28.911Z,15.09
2023-04-02T06:47:28.860Z,15.40
2023-04-02T06:48:28.902Z,15.57
2023-04-02T06:49:28.931Z,15.72
2023-04-02T06:50:28.994Z,15.19
2023-04-02T06:51:29.027Z,14.43
2023-04-02T06:52:29.067Z,13.93
2023-04-02T06:53:29.131Z,13.94
2023-04-02T06:54:29.138Z,13.99
2023-04-02T06:55:29.192Z,13.40
2023-04-02T06:56:29.210Z,12.92
2023-04-02T06:57:29.292Z,12.58
2023-04-02T06:58:29.324Z,13.03
2023-04-02T06:59:29.350Z,13.53
2023-04-02T07:00:29.379Z,13.55
2023-04-02T07:01:29.432Z,13.39
2023-04-02T07:02:29.454Z,13.62
2023-04-02T07:03:29.400Z,13.69
2023-04-02T07:04:29.451Z,13.75
2023-04-02T07:05:29.426Z,13.91
2023-04-02T07:06:29.438Z,13.70
2023-04-02T07:07:29.445Z,13.80
2023-04-02T07:08:29.471Z,13.77
2023-04-02T07:09:29.439Z,13.60
2023-04-02T07:10:29.488Z,13.49
2023-04-02T07:11:29.516Z,13.67
2023-04-02T07:12:29.529Z,13.91
2023-04-02T07:13:29.562Z,14.15
2023-04-02T07:14:29.633Z,14.44
2023-04-02T07:15:29.666Z,14.60
2023-04-02T07:16:29.750Z,14.77
2023-04-02T07:17:29.792Z,14.97
2023-04-02T07:18:29.766Z,15.05
2023-04-02T07:19:29.791Z,15.18
2023-04-02T07:20:29.834Z,15.32
2023-04-02T07:21:29.890Z,15.39
2023-04-02T07:22:29.903Z,15.58
2023-04-02T07:23:29.995Z,15.67
2023-04-02T07:24:30.021Z,15.76
2023-04-02T07:25:30.012Z,15.76
2023-04-02T07:26:30.023Z,15.93
2023-04-02T07:27:30.058Z,15.99
2023-04-02T07:28:30.117Z,16.01
2023-04-02T07:29:30.149Z,16.03
2023-04-02T07:30:30.162Z,16.08
2023-04-02T07:31:30.228Z,16.13
2023-04-02T07:32:30.235Z,16.14
2023-04-02T07:33:30.288Z,16.09
2023-04-02T07:34:30.314Z,16.16
2023-04-02T07:35:30.344Z,16.09
2023-04-02T07:36:30.387Z,15.76
2023-04-02T07:37:30.407Z,15.29
2023-04-02T07:38:30.456Z,15.07
2023-04-02T07:39:30.453Z,15.12
2023-04-02T07:40:30.498Z,15.12
2023-04-02T07:41:30.548Z,14.69
2023-04-02T07:42:30.559Z,14.43
2023-04-02T07:43:30.697Z,13.90
2023-04-02T07:44:30.659Z,13.99
2023-04-02T07:45:30.690Z,14.16
2023-04-02T07:46:30.728Z,14.18
2023-04-02T07:47:30.743Z,13.64
2023-04-02T07:48:30.801Z,13.08
2023-04-02T07:49:30.814Z,12.81
2023-04-02T07:50:30.849Z,12.59
2023-04-02T07:51:30.873Z,12.22
2023-04-02T07:52:30.884Z,12.08
2023-04-02T07:53:31.056Z,11.94
2023-04-02T07:54:30.960Z,11.67
2023-04-02T07:55:30.984Z,11.58
2023-04-02T07:56:31.025Z,11.49
2023-04-02T07:57:31.201Z,11.45
2023-04-02T07:58:31.196Z,11.34
2023-04-02T07:59:31.164Z,11.34
2023-04-02T08:00:31.225Z,11.23
2023-04-02T08:01:31.270Z,11.23
2023-04-02T08:02:31.378Z,11.18
2023-04-02T08:03:31.472Z,11.22
2023-04-02T08:04:31.348Z,11.22
2023-04-02T08:05:31.359Z,11.20
2023-04-02T08:06:31.389Z,11.25
2023-04-02T08:07:31.395Z,11.28
2023-04-02T08:08:31.453Z,11.21
2023-04-02T08:09:31.443Z,11.26
2023-04-02T08:10:31.491Z,11.26
2023-04-02T08:11:32.008Z,11.30
2023-04-02T08:12:31.554Z,11.43
2023-04-02T08:13:31.590Z,11.41
2023-04-02T08:14:31.617Z,11.44
2023-04-02T08:15:31.626Z,11.51
2023-04-02T08:16:31.712Z,11.60
2023-04-02T08:17:31.760Z,11.64
2023-04-02T08:18:31.772Z,11.69
2023-04-02T08:19:33.707Z,11.81
2023-04-02T08:20:32.767Z,11.79
2023-04-02T08:21:31.733Z,11.86
2023-04-02T08:22:31.745Z,11.94
2023-04-02T08:23:31.737Z,11.98
2023-04-02T08:24:31.703Z,12.08
2023-04-02T08:25:31.703Z,12.13
2023-04-02T08:26:31.702Z,12.22
2023-04-02T08:27:31.708Z,12.23
2023-04-02T08:28:31.714Z,12.35
2023-04-02T08:29:31.677Z,12.45
2023-04-02T08:30:31.740Z,12.45
2023-04-02T08:31:31.664Z,12.61
2023-04-02T08:32:31.687Z,12.65
2023-04-02T08:33:31.691Z,12.96
2023-04-02T08:34:31.667Z,13.24
2023-04-02T08:35:31.668Z,13.62
2023-04-02T08:36:31.664Z,13.95
2023-04-02T08:37:31.664Z,14.26
2023-04-02T08:38:31.662Z,14.51
2023-04-02T08:39:31.686Z,14.76
2023-04-02T08:40:31.738Z,14.89
2023-04-02T08:41:31.751Z,15.09
2023-04-02T08:42:31.739Z,15.27
2023-04-02T08:43:31.761Z,15.37
2023-04-02T08:44:31.806Z,15.50
2023-04-02T08:45:31.804Z,15.61
2023-04-02T08:46:31.982Z,15.74
2023-04-02T08:47:31.877Z,15.78
2023-04-02T08:48:31.871Z,15.87
2023-04-02T08:49:31.876Z,15.88
2023-04-02T08:50:31.929Z,15.96
2023-04-02T08:51:31.946Z,16.04
2023-04-02T08:52:32.052Z,16.02
2023-04-02T08:53:32.004Z,16.09
2023-04-02T08:54:31.992Z,16.17
2023-04-02T08:55:32.047Z,16.22
2023-04-02T08:56:31.976Z,16.25
2023-04-02T08:57:32.127Z,16.26
2023-04-02T08:58:32.020Z,16.27
2023-04-02T08:59:32.034Z,16.37
2023-04-02T09:00:32.058Z,16.34
2023-04-02T09:01:32.121Z,16.44
2023-04-02T09:02:32.254Z,16.42
2023-04-02T09:03:32.171Z,16.50
2023-04-02T09:04:32.246Z,16.47
2023-04-02T09:05:32.311Z,16.48
2023-04-02T09:06:32.260Z,16.54
2023-04-02T09:07:32.282Z,16.58
2023-04-02T09:08:32.253Z,16.56
2023-04-02T09:09:32.273Z,16.56
2023-04-02T09:10:32.258Z,16.62
2023-04-02T09:11:32.270Z,16.62
2023-04-02T09:12:32.300Z,16.63
2023-04-02T09:13:32.327Z,16.62
2023-04-02T09:14:32.354Z,16.62
2023-04-02T09:15:32.455Z,16.62
2023-04-02T09:16:32.476Z,16.59
2023-04-02T09:17:42.728Z,16.44
2023-04-02T09:18:33.400Z,16.35
2023-04-02T09:19:32.398Z,16.48
2023-04-02T09:20:32.389Z,16.49
2023-04-02T09:21:32.366Z,16.47
2023-04-02T09:22:32.369Z,16.45
2023-04-02T09:23:32.368Z,16.42
2023-04-02T09:24:32.351Z,16.41
2023-04-02T09:25:32.451Z,16.51
2023-04-02T09:26:32.357Z,16.47
2023-04-02T09:27:32.351Z,16.48
2023-04-02T09:28:32.362Z,16.51
2023-04-02T09:29:32.343Z,16.54
2023-04-02T09:30:32.400Z,16.55
2023-04-02T09:31:32.444Z,16.60
2023-04-02T09:32:32.444Z,16.61
2023-04-02T09:33:32.466Z,16.61
2023-04-02T09:34:32.482Z,16.55
2023-04-02T09:35:32.493Z,16.63
2023-04-02T09:36:32.566Z,16.61
2023-04-02T09:37:32.562Z,16.68
2023-04-02T09:38:32.620Z,16.70
2023-04-02T09:39:32.629Z,16.66
2023-04-02T09:40:32.669Z,16.77
2023-04-02T09:41:33.696Z,16.66
2023-04-02T09:42:32.743Z,16.83
2023-04-02T09:43:32.813Z,16.87
2023-04-02T09:44:32.807Z,16.86
2023-04-02T09:45:32.833Z,16.93
2023-04-02T09:46:32.918Z,16.98
2023-04-02T09:47:32.996Z,16.99
2023-04-02T09:48:33.020Z,17.02
2023-04-02T09:49:33.112Z,17.12
2023-04-02T09:50:33.154Z,17.15
2023-04-02T09:51:33.194Z,17.17
2023-04-02T09:52:33.228Z,17.24
2023-04-02T09:53:33.263Z,17.25
2023-04-02T09:54:33.282Z,17.22
2023-04-02T09:55:33.532Z,17.31
2023-04-02T09:56:33.383Z,17.35
2023-04-02T09:57:33.512Z,17.38
2023-04-02T09:58:33.450Z,17.38
2023-04-02T09:59:33.524Z,17.44
2023-04-02T10:00:33.601Z,17.53
2023-04-02T10:01:33.673Z,17.51
2023-04-02T10:02:33.747Z,17.56
2023-04-02T10:03:33.740Z,17.62
2023-04-02T10:04:33.924Z,17.61
2023-04-02T10:05:40.749Z,17.64
2023-04-02T10:06:34.849Z,17.60
2023-04-02T10:07:33.829Z,17.67
2023-04-02T10:08:33.810Z,17.74
2023-04-02T10:09:33.829Z,17.77
2023-04-02T10:10:33.978Z,17.81
2023-04-02T10:11:45.798Z,17.77
2023-04-02T10:12:34.796Z,17.79
2023-04-02T10:13:33.782Z,17.79
2023-04-02T10:14:33.781Z,17.80
2023-04-02T10:15:34.163Z,17.80
2023-04-02T10:16:33.862Z,17.83
2023-04-02T10:17:33.804Z,17.83
2023-04-02T10:18:33.758Z,17.83
2023-04-02T10:19:33.773Z,17.81
2023-04-02T10:20:39.109Z,17.89
2023-04-02T10:21:34.761Z,17.86
2023-04-02T10:22:33.742Z,17.86
2023-04-02T10:23:33.722Z,17.86
2023-04-02T10:24:33.720Z,17.84
2023-04-02T10:25:33.897Z,17.81
2023-04-02T10:26:33.719Z,17.80
2023-04-02T10:27:33.722Z,17.74
2023-04-02T10:28:33.692Z,17.78
2023-04-02T10:29:33.688Z,17.75
2023-04-02T10:30:33.722Z,17.72
2023-04-02T10:31:33.652Z,17.68
2023-04-02T10:32:33.717Z,17.59
2023-04-02T10:33:33.661Z,17.62
2023-04-02T10:34:33.703Z,17.59
2023-04-02T10:35:33.750Z,17.53
2023-04-02T10:36:33.652Z,17.44
2023-04-02T10:37:33.657Z,17.36
2023-04-02T10:38:33.617Z,17.39
2023-04-02T10:39:33.605Z,17.25
2023-04-02T10:40:33.617Z,17.25
2023-04-02T10:41:33.624Z,17.18
2023-04-02T10:42:33.621Z,17.19
2023-04-02T10:43:33.613Z,17.18
2023-04-02T10:44:33.636Z,17.16
2023-04-02T10:45:33.925Z,17.12
2023-04-02T10:46:33.744Z,17.11
2023-04-02T10:47:33.761Z,17.11
2023-04-02T10:48:33.785Z,17.04
2023-04-02T10:49:33.864Z,16.96
2023-04-02T10:50:33.850Z,17.06
2023-04-02T10:51:33.899Z,17.12
2023-04-02T10:52:33.944Z,17.12
2023-04-02T10:53:33.957Z,17.13
2023-04-02T10:54:33.981Z,17.16
2023-04-02T10:55:34.290Z,17.24
2023-04-02T10:56:44.165Z,17.27
2023-04-02T10:57:35.153Z,17.32
2023-04-02T10:58:34.021Z,17.36
2023-04-02T10:59:34.030Z,17.37
2023-04-02T11:00:34.011Z,17.42
2023-04-02T11:01:34.048Z,17.51
2023-04-02T11:02:34.083Z,17.49
2023-04-02T11:03:34.028Z,17.58
2023-04-02T11:04:33.981Z,17.61
2023-04-02T11:06:33.955Z,17.65
2023-04-02T11:07:33.968Z,17.71
2023-04-02T11:08:33.944Z,17.71
2023-04-02T11:09:33.955Z,17.81
2023-04-02T11:10:33.951Z,17.78
2023-04-02T11:11:34.000Z,17.72
2023-04-02T11:12:35.436Z,17.84
2023-04-02T11:13:34.070Z,17.82
2023-04-02T11:14:34.058Z,17.82
2023-04-02T11:15:34.264Z,17.90
2023-04-02T11:16:35.001Z,17.88
2023-04-02T11:17:34.086Z,17.88
2023-04-02T11:18:34.047Z,18.00
2023-04-02T11:19:34.092Z,17.94
2023-04-02T11:20:34.117Z,18.00
2023-04-02T11:21:34.888Z,18.00
2023-04-02T11:22:34.188Z,18.00
2023-04-02T11:23:34.230Z,17.97
2023-04-02T11:24:34.310Z,18.03
2023-04-02T11:25:34.454Z,17.98
2023-04-02T11:26:34.301Z,18.00
2023-04-02T11:27:34.315Z,18.05
2023-04-02T11:28:34.317Z,18.07
2023-04-02T11:29:34.320Z,18.06
2023-04-02T11:30:34.346Z,18.06
2023-04-02T11:31:34.429Z,18.10
2023-04-02T11:32:34.445Z,18.09
2023-04-02T11:33:39.241Z,18.09
2023-04-02T11:34:35.432Z,18.10
2023-04-02T11:35:34.791Z,18.05
2023-04-02T11:36:34.403Z,18.05
2023-04-02T11:37:34.384Z,18.07
2023-04-02T11:38:34.404Z,18.08
2023-04-02T11:39:34.398Z,18.08
2023-04-02T11:40:34.370Z,18.07
2023-04-02T11:41:34.366Z,18.11
2023-04-02T11:42:34.380Z,18.06
2023-04-02T11:43:34.398Z,18.08
2023-04-02T11:44:34.420Z,18.14
2023-04-02T11:45:43.151Z,18.08
2023-04-02T11:46:35.525Z,18.15
2023-04-02T11:47:34.485Z,18.15
2023-04-02T11:48:34.472Z,18.15
2023-04-02T11:49:34.465Z,18.14
2023-04-02T11:50:34.484Z,18.18
2023-04-02T11:51:34.447Z,18.12
2023-04-02T11:52:34.447Z,18.14
2023-04-02T11:53:34.420Z,18.18
2023-04-02T11:54:34.420Z,18.17
2023-04-02T11:55:34.609Z,18.12
2023-04-02T11:56:34.413Z,18.13
2023-04-02T11:57:34.517Z,18.23
2023-04-02T11:58:34.402Z,18.13
2023-04-02T11:59:34.380Z,18.15
2023-04-02T12:00:34.710Z,18.16
2023-04-02T12:01:34.517Z,18.18
2023-04-02T12:02:34.694Z,18.20
2023-04-02T12:03:34.603Z,18.18
2023-04-02T12:04:34.678Z,18.22
2023-04-02T12:05:34.894Z,18.21
2023-04-02T12:06:34.720Z,18.28
2023-04-02T12:07:34.756Z,18.33
2023-04-02T12:08:36.227Z,18.27
2023-04-02T12:09:35.805Z,18.28
2023-04-02T12:10:34.761Z,18.25
2023-04-02T12:11:34.766Z,18.26
2023-04-02T12:12:34.766Z,18.31
2023-04-02T12:13:34.748Z,18.31
2023-04-02T12:14:34.737Z,18.29
2023-04-02T12:15:34.859Z,18.30
2023-04-02T12:16:34.747Z,18.33
2023-04-02T12:17:34.800Z,18.31
2023-04-02T12:18:34.706Z,18.31
2023-04-02T12:19:34.746Z,18.31
2023-04-02T12:20:35.003Z,18.33
2023-04-02T12:21:34.773Z,18.36
2023-04-02T12:22:34.801Z,18.34
2023-04-02T12:23:34.845Z,18.26
2023-04-02T12:24:34.876Z,18.34
2023-04-02T12:25:34.954Z,18.32
2023-04-02T12:26:34.938Z,18.31
2023-04-02T12:27:34.987Z,18.34
2023-04-02T12:28:35.022Z,18.25
2023-04-02T12:29:35.063Z,18.28
2023-04-02T12:30:35.235Z,18.25
2023-04-02T12:31:35.130Z,18.26
2023-04-02T12:32:35.205Z,18.23
2023-04-02T12:33:35.194Z,18.26
2023-04-02T12:34:35.245Z,18.25
2023-04-02T12:35:35.350Z,18.23
2023-04-02T12:36:35.313Z,18.23
2023-04-02T12:37:35.352Z,18.20
2023-04-02T12:38:35.423Z,18.16
2023-04-02T12:39:35.463Z,18.23
2023-04-02T12:40:35.679Z,18.20
2023-04-02T12:41:35.465Z,18.16
2023-04-02T12:42:35.454Z,18.19
2023-04-02T12:43:35.470Z,18.20
2023-04-02T12:44:35.449Z,18.19
2023-04-02T12:45:35.471Z,18.11
2023-04-02T12:46:35.665Z,18.15
2023-04-02T12:47:35.506Z,18.12
2023-04-02T12:48:35.483Z,18.17
2023-04-02T12:49:35.469Z,18.10
2023-04-02T12:50:35.657Z,18.14
2023-04-02T12:51:35.458Z,18.11
2023-04-02T12:52:35.441Z,18.11
2023-04-02T12:53:35.466Z,18.08
2023-04-02T12:54:35.440Z,18.08